createdAt,value
2019-04-06T00:00:41.838Z,10.60
2019-04-06T00:03:19.484Z,10.60
2019-04-06T00:06:01.526Z,10.60
2019-04-06T00:08:42.937Z,10.50
2019-04-06T00:11:21.804Z,10.50
2019-04-06T00:14:03.530Z,10.40
2019-04-06T00:16:53.507Z,10.30
2019-04-06T00:19:33.198Z,10.30
2019-04-06T00:22:20.762Z,10.20
2019-04-06T00:24:59.487Z,10.10
2019-04-06T00:27:52.033Z,10.20
2019-04-06T00:30:41.090Z,10.10
2019-04-06T00:33:27.089Z,10.10
2019-04-06T00:36:21.748Z,10.10
2019-04-06T00:39:05.573Z,10.10
2019-04-06T00:42:00.067Z,10.00
2019-04-06T00:44:41.523Z,9.90
2019-04-06T00:47:23.524Z,9.80
2019-04-06T00:50:12.828Z,9.70
2019-04-06T00:53:13.084Z,9.60
2019-04-06T00:55:56.021Z,9.60
2019-04-06T00:58:43.318Z,9.60
2019-04-06T01:01:25.576Z,9.60
2019-04-06T01:04:07.494Z,9.60
2019-04-06T01:06:53.535Z,9.70
2019-04-06T01:09:48.209Z,9.70
2019-04-06T01:13:01.869Z,9.70
2019-04-06T01:15:45.951Z,9.80
2019-04-06T01:18:27.290Z,9.70
2019-04-06T01:24:11.673Z,9.70
2019-04-06T01:26:59.525Z,9.70
2019-04-06T01:29:55.588Z,9.70
2019-04-06T01:32:39.215Z,9.70
2019-04-06T01:35:39.075Z,9.70
2019-04-06T01:38:29.616Z,9.70
2019-04-06T01:41:16.938Z,9.70
2019-04-06T01:43:55.728Z,9.60
2019-04-06T01:46:43.514Z,9.60
2019-04-06T01:49:29.030Z,9.60
2019-04-06T01:52:12.277Z,9.60
2019-04-06T01:54:51.057Z,9.60
2019-04-06T01:57:44.172Z,9.60
2019-04-06T02:00:26.168Z,9.50
2019-04-06T02:03:25.904Z,9.50
2019-04-06T02:06:09.050Z,9.50
2019-04-06T02:09:04.655Z,9.50
2019-04-06T02:11:46.368Z,9.50
2019-04-06T02:14:27.407Z,9.40
2019-04-06T02:17:13.105Z,9.40
2019-04-06T02:19:53.606Z,9.40
2019-04-06T02:22:42.995Z,9.40
2019-04-06T02:25:25.716Z,9.30
2019-04-06T02:28:14.043Z,9.30
2019-04-06T02:31:15.031Z,9.30
2019-04-06T02:34:18.483Z,9.30
2019-04-06T02:37:10.235Z,9.30
2019-04-06T02:39:56.112Z,9.30
2019-04-06T02:43:03.800Z,9.30
2019-04-06T02:45:57.155Z,9.30
2019-04-06T02:48:42.820Z,9.20
2019-04-06T02:51:25.189Z,9.20
2019-04-06T02:54:16.682Z,9.20
2019-04-06T02:56:57.751Z,9.10
2019-04-06T02:59:50.629Z,9.10
2019-04-06T03:02:43.127Z,9.00
2019-04-06T03:05:32.077Z,9.00
2019-04-06T03:08:16.373Z,8.90
2019-04-06T03:11:07.476Z,8.90
2019-04-06T03:13:56.518Z,8.80
2019-04-06T03:16:43.412Z,8.70
2019-04-06T03:19:45.144Z,8.70
2019-04-06T03:22:29.120Z,8.60
2019-04-06T03:25:21.167Z,8.50
2019-04-06T03:28:01.593Z,8.50
2019-04-06T03:30:50.363Z,8.40
2019-04-06T03:33:43.206Z,8.40
2019-04-06T03:36:45.704Z,8.30
2019-04-06T03:39:39.478Z,8.30
2019-04-06T03:42:39.732Z,8.10
2019-04-06T03:45:27.675Z,8.10
2019-04-06T03:48:22.654Z,8.00
2019-04-06T03:51:13.500Z,8.00
2019-04-06T03:54:06.996Z,7.90
2019-04-06T03:56:55.330Z,7.90
2019-04-06T03:59:56.234Z,7.80
2019-04-06T04:02:39.117Z,7.80
2019-04-06T04:05:27.488Z,7.70
2019-04-06T04:08:07.840Z,7.60
2019-04-06T04:11:08.919Z,7.60
2019-04-06T04:14:00.803Z,7.50
2019-04-06T04:16:48.702Z,7.50
2019-04-06T04:19:38.105Z,7.50
2019-04-06T04:22:19.630Z,7.50
2019-04-06T04:25:29.304Z,7.50
2019-04-06T04:28:11.251Z,7.50
2019-04-06T04:30:55.293Z,7.50
2019-04-06T04:33:43.422Z,7.40
2019-04-06T04:36:25.605Z,7.40
2019-04-06T04:39:11.341Z,7.40
2019-04-06T04:42:10.870Z,7.40
2019-04-06T04:45:07.111Z,7.30
2019-04-06T04:47:57.220Z,7.30
2019-04-06T04:50:53.844Z,7.30
2019-04-06T04:53:56.133Z,7.30
2019-04-06T04:56:43.636Z,7.20
2019-04-06T04:59:34.361Z,7.20
2019-04-06T05:02:24.077Z,7.30
2019-04-06T05:05:16.908Z,7.40
2019-04-06T05:08:26.341Z,7.40
2019-04-06T05:11:09.944Z,7.40
2019-04-06T05:13:57.280Z,7.50
2019-04-06T05:17:08.141Z,7.50
2019-04-06T05:20:13.235Z,7.60
2019-04-06T05:23:04.004Z,7.70
2019-04-06T05:25:54.830Z,7.70
2019-04-06T05:29:07.720Z,7.80
2019-04-06T05:32:34.740Z,7.90
2019-04-06T05:35:31.106Z,8.10
2019-04-06T05:38:14.754Z,8.10
2019-04-06T05:41:07.124Z,8.20
2019-04-06T05:43:49.629Z,8.30
2019-04-06T05:46:39.277Z,8.40
2019-04-06T05:49:31.691Z,8.50
2019-04-06T05:52:37.069Z,8.60
2019-04-06T05:55:31.090Z,8.70
2019-04-06T05:58:10.592Z,8.80
2019-04-06T06:01:00.067Z,8.90
2019-04-06T06:03:50.149Z,9.00
2019-04-06T06:06:39.093Z,9.10
2019-04-06T06:09:46.105Z,9.20
2019-04-06T06:12:34.801Z,9.30
2019-04-06T06:15:20.673Z,9.40
2019-04-06T06:18:03.163Z,9.50
2019-04-06T06:20:49.999Z,9.70
2019-04-06T06:23:37.210Z,9.80
2019-04-06T06:26:17.461Z,9.90
2019-04-06T06:28:58.863Z,10.00
2019-04-06T06:31:55.943Z,10.00
2019-04-06T06:34:37.185Z,10.20
2019-04-06T06:40:45.697Z,10.40
2019-04-06T06:43:31.615Z,10.50
2019-04-06T06:46:26.054Z,10.60
2019-04-06T06:49:16.511Z,10.80
2019-04-06T06:52:27.045Z,10.90
2019-04-06T06:55:22.541Z,11.00
2019-04-06T06:58:25.269Z,11.10
2019-04-06T07:01:12.125Z,11.20
2019-04-06T07:03:57.077Z,11.30
2019-04-06T07:06:52.201Z,11.40
2019-04-06T07:09:42.770Z,11.40
2019-04-06T07:12:58.933Z,11.50
2019-04-06T07:15:36.300Z,11.60
2019-04-06T07:18:21.765Z,11.70
2019-04-06T07:21:16.470Z,11.80
2019-04-06T07:23:57.635Z,12.00
2019-04-06T07:27:09.639Z,12.20
2019-04-06T07:30:14.508Z,12.50
2019-04-06T07:32:59.451Z,13.20
2019-04-06T07:36:19.655Z,13.90
2019-04-06T07:39:26.058Z,14.40
2019-04-06T07:42:27.408Z,15.10
2019-04-06T07:45:13.744Z,15.80
2019-04-06T07:48:02.233Z,16.30
2019-04-06T07:50:47.155Z,16.60
2019-04-06T07:53:44.190Z,16.70
2019-04-06T07:56:30.241Z,17.10
2019-04-06T07:59:22.257Z,17.60
2019-04-06T08:02:17.393Z,18.00
2019-04-06T08:05:04.155Z,18.40
2019-04-06T08:08:07.611Z,18.60
2019-04-06T08:10:51.809Z,18.80
2019-04-06T08:13:33.830Z,18.70
2019-04-06T08:16:32.659Z,19.10
2019-04-06T08:19:16.501Z,19.20
2019-04-06T08:22:03.665Z,19.10
2019-04-06T08:25:03.671Z,18.80
2019-04-06T08:27:54.967Z,18.60
2019-04-06T08:30:46.831Z,18.70
2019-04-06T08:33:34.247Z,18.90
2019-04-06T08:36:32.792Z,19.40
2019-04-06T08:39:35.996Z,19.80
2019-04-06T08:42:15.302Z,20.20
2019-04-06T08:44:57.841Z,20.20
2019-04-06T08:47:45.962Z,20.30
2019-04-06T08:50:36.960Z,20.20
2019-04-06T08:53:25.431Z,20.30
2019-04-06T08:56:14.611Z,20.10
2019-04-06T08:59:12.165Z,20.20
2019-04-06T09:02:28.253Z,20.30
2019-04-06T09:05:24.681Z,20.30
2019-04-06T09:08:10.651Z,20.00
2019-04-06T09:11:05.089Z,19.90
2019-04-06T09:17:07.369Z,19.10
2019-04-06T09:19:52.946Z,18.50
2019-04-06T09:22:32.086Z,18.30
2019-04-06T09:25:20.886Z,18.20
2019-04-06T09:28:20.522Z,17.90
2019-04-06T09:31:10.908Z,17.60
2019-04-06T09:33:56.164Z,17.50
2019-04-06T09:36:49.686Z,17.20
2019-04-06T09:39:36.250Z,17.20
2019-04-06T09:42:17.086Z,17.10
2019-04-06T09:45:05.586Z,16.90
2019-04-06T09:48:35.984Z,16.90
2019-04-06T09:51:41.365Z,17.00
2019-04-06T09:54:27.916Z,17.30
2019-04-06T09:57:11.292Z,17.40
2019-04-06T10:00:11.514Z,17.50
2019-04-06T10:02:58.392Z,17.50
2019-04-06T10:06:03.066Z,17.40
2019-04-06T10:08:57.512Z,17.40
2019-04-06T10:11:49.328Z,17.40
2019-04-06T10:14:44.932Z,17.60
2019-04-06T10:17:54.187Z,17.60
2019-04-06T10:20:38.296Z,17.30
2019-04-06T10:23:40.052Z,17.10
2019-04-06T10:26:30.605Z,17.00
2019-04-06T10:29:29.954Z,16.80
2019-04-06T10:32:37.750Z,16.70
2019-04-06T10:39:29.053Z,16.50
2019-04-06T10:42:41.293Z,16.50
2019-04-06T10:45:30.513Z,16.50
2019-04-06T10:48:26.238Z,16.50
2019-04-06T10:51:22.516Z,16.50
2019-04-06T10:54:41.521Z,16.60
2019-04-06T10:57:29.933Z,16.70
2019-04-06T11:00:35.404Z,16.80
2019-04-06T11:03:38.351Z,17.00
2019-04-06T11:06:24.031Z,17.30
2019-04-06T11:09:20.154Z,17.40
2019-04-06T11:12:24.237Z,17.50
2019-04-06T11:15:21.432Z,17.80
2019-04-06T11:18:37.416Z,18.00
2019-04-06T11:21:34.859Z,18.00
2019-04-06T11:24:42.167Z,17.80
2019-04-06T11:27:39.686Z,17.80
2019-04-06T11:30:26.428Z,17.80
2019-04-06T11:33:44.404Z,18.10
2019-04-06T11:36:22.288Z,18.40
2019-04-06T11:39:21.053Z,18.60
2019-04-06T11:42:10.812Z,18.90
2019-04-06T11:44:58.360Z,19.10
2019-04-06T11:47:58.127Z,19.20
2019-04-06T11:50:53.322Z,19.20
2019-04-06T11:53:38.427Z,19.20
2019-04-06T11:56:34.169Z,19.40
2019-04-06T11:59:40.459Z,19.50
2019-04-06T12:03:00.515Z,19.70
2019-04-06T12:05:52.649Z,19.80
2019-04-06T12:09:20.301Z,19.90
2019-04-06T12:12:12.732Z,20.10
2019-04-06T12:15:06.834Z,20.30
2019-04-06T12:18:01.362Z,20.30
2019-04-06T12:20:54.455Z,20.40
2019-04-06T12:23:57.584Z,20.30
2019-04-06T12:26:48.599Z,20.30
2019-04-06T12:29:53.202Z,20.20
2019-04-06T12:32:57.182Z,20.10
2019-04-06T12:35:43.136Z,20.00
2019-04-06T12:41:48.406Z,20.00
2019-04-06T12:44:50.727Z,20.10
2019-04-06T12:47:48.435Z,20.20
2019-04-06T12:51:02.611Z,20.30
2019-04-06T12:54:02.205Z,20.40
2019-04-06T12:57:03.564Z,20.50
2019-04-06T12:59:58.319Z,20.70
2019-04-06T13:02:56.868Z,20.90
2019-04-06T13:06:03.473Z,20.90
2019-04-06T13:08:57.170Z,20.90
2019-04-06T13:11:57.957Z,21.00
2019-04-06T13:14:42.813Z,21.10
2019-04-06T13:17:48.551Z,21.20
2019-04-06T13:20:48.871Z,21.10
2019-04-06T13:23:40.709Z,21.00
2019-04-06T13:26:41.154Z,20.90
2019-04-06T13:29:43.661Z,20.70
2019-04-06T13:32:28.591Z,20.40
2019-04-06T13:35:37.727Z,20.30
2019-04-06T13:38:34.595Z,20.30
2019-04-06T13:41:51.524Z,20.30
2019-04-06T13:44:57.167Z,20.30
2019-04-06T13:47:51.567Z,20.00
2019-04-06T13:51:01.110Z,19.80
2019-04-06T13:53:56.514Z,19.60
2019-04-06T13:56:58.527Z,19.30
2019-04-06T14:00:09.333Z,19.30
2019-04-06T14:03:27.847Z,19.30
2019-04-06T14:06:49.468Z,19.20
2019-04-06T14:09:52.896Z,19.20
2019-04-06T14:12:44.011Z,19.10
2019-04-06T14:15:39.348Z,19.10
2019-04-06T14:19:10.457Z,19.30
2019-04-06T14:21:56.101Z,19.40
2019-04-06T14:24:40.755Z,19.50
2019-04-06T14:27:32.657Z,19.60
2019-04-06T14:30:12.345Z,19.60
2019-04-06T14:33:03.382Z,19.70
2019-04-06T14:35:48.039Z,19.70
2019-04-06T14:38:43.536Z,19.60
2019-04-06T14:41:40.021Z,19.60
2019-04-06T14:44:48.254Z,19.60
2019-04-06T14:47:42.762Z,19.60
2019-04-06T14:50:38.629Z,19.70
2019-04-06T15:36:15.691Z,18.60
2019-04-06T15:39:07.553Z,18.50
2019-04-06T15:41:59.349Z,18.40
2019-04-06T15:44:41.875Z,18.30
2019-04-06T15:47:33.063Z,18.30
2019-04-06T15:50:15.761Z,18.20
2019-04-06T15:53:01.454Z,18.30
2019-04-06T15:55:40.555Z,18.30
2019-04-06T15:58:20.574Z,18.30
2019-04-06T16:01:03.870Z,18.30
2019-04-06T16:04:01.224Z,18.40
2019-04-06T16:06:48.856Z,18.40
2019-04-06T16:09:41.791Z,18.40
2019-04-06T16:12:23.888Z,18.40
2019-04-06T16:15:02.855Z,18.40
2019-04-06T16:17:42.315Z,18.30
2019-04-06T16:20:39.692Z,18.30
2019-04-06T16:23:27.726Z,18.20
2019-04-06T16:26:09.383Z,18.20
2019-04-06T16:28:51.954Z,18.10
2019-04-06T16:31:31.592Z,18.10
2019-04-06T16:34:26.855Z,18.00
2019-04-06T16:37:15.053Z,17.90
2019-04-06T16:39:54.179Z,17.80
2019-04-06T16:42:33.449Z,17.70
2019-04-06T16:45:12.620Z,17.60
2019-04-06T16:47:54.615Z,17.50
2019-04-06T16:50:50.199Z,17.30
2019-04-06T16:53:31.919Z,17.30
2019-04-06T16:56:13.580Z,17.10
2019-04-06T16:58:58.691Z,17.00
2019-04-06T17:01:49.244Z,16.90
2019-04-06T17:04:28.166Z,16.70
2019-04-06T17:07:07.118Z,16.60
2019-04-06T17:09:48.967Z,16.50
2019-04-06T17:12:37.191Z,16.30
2019-04-06T17:15:25.270Z,16.20
2019-04-06T17:18:20.858Z,16.10
2019-04-06T17:21:00.040Z,15.90
2019-04-06T17:23:38.972Z,15.80
2019-04-06T17:26:17.886Z,15.60
2019-04-06T17:28:59.997Z,15.50
2019-04-06T17:31:56.377Z,15.40
2019-04-06T17:37:55.492Z,15.10
2019-04-06T17:40:43.388Z,14.90
2019-04-06T17:43:38.467Z,14.70
2019-04-06T17:46:23.332Z,14.60
2019-04-06T17:49:14.307Z,14.40
2019-04-06T18:03:28.482Z,13.60
2019-04-06T18:07:04.867Z,13.50
2019-04-06T18:10:02.462Z,13.30
2019-04-06T18:13:06.754Z,13.20
2019-04-06T18:16:16.568Z,13.00
2019-04-06T18:18:48.686Z,12.90
2019-04-06T18:21:26.624Z,12.80
2019-04-06T18:24:04.285Z,12.70
2019-04-06T18:26:42.481Z,12.60
2019-04-06T18:29:22.089Z,12.50
2019-04-06T18:32:02.966Z,12.40
2019-04-06T18:34:42.169Z,12.30
2019-04-06T18:37:21.382Z,12.20
2019-04-06T18:40:00.387Z,12.10
2019-04-06T18:42:37.646Z,12.00
2019-04-06T18:45:15.350Z,11.90
2019-04-06T18:47:53.110Z,11.90
2019-04-06T18:50:35.922Z,11.80
2019-04-06T18:53:09.432Z,11.70
2019-04-06T18:55:52.727Z,11.70
2019-04-06T18:58:30.119Z,11.60
2019-04-06T19:01:08.948Z,11.50
2019-04-06T19:03:46.301Z,11.50
2019-04-06T19:06:23.815Z,11.40
2019-04-06T19:09:01.068Z,11.30
2019-04-06T19:11:38.350Z,11.30
2019-04-06T19:14:15.921Z,11.30
2019-04-06T19:16:53.527Z,11.30
2019-04-06T19:19:39.010Z,11.30
2019-04-06T19:22:16.355Z,11.30
2019-04-06T19:24:54.424Z,11.20
2019-04-06T19:27:31.670Z,11.30
2019-04-06T19:30:09.306Z,11.20
2019-04-06T19:32:46.602Z,11.20
2019-04-06T19:35:23.806Z,11.20
2019-04-06T19:38:01.037Z,11.20
2019-04-06T19:40:38.268Z,11.10
2019-04-06T19:43:17.327Z,11.20
2019-04-06T19:45:54.844Z,11.10
2019-04-06T19:48:32.154Z,11.10
2019-04-06T19:51:10.365Z,11.00
2019-04-06T19:53:48.295Z,11.00
2019-04-06T19:56:25.672Z,11.00
2019-04-06T19:59:03.252Z,10.90
2019-04-06T20:01:40.370Z,10.80
2019-04-06T20:04:17.645Z,10.70
2019-04-06T20:06:54.809Z,10.60
2019-04-06T20:09:32.075Z,10.60
2019-04-06T20:12:09.306Z,10.50
2019-04-06T20:17:35.907Z,10.30
2019-04-06T20:20:13.215Z,10.10
2019-04-06T20:22:50.476Z,10.00
2019-04-06T20:25:27.712Z,9.90
2019-04-06T20:28:05.397Z,9.80
2019-04-06T20:30:42.906Z,9.70
2019-04-06T20:33:20.606Z,9.60
2019-04-06T20:35:57.866Z,9.40
2019-04-06T20:38:36.728Z,9.40
2019-04-06T20:41:13.915Z,9.20
2019-04-06T20:43:51.916Z,9.20
2019-04-06T20:46:29.031Z,9.10
2019-04-06T20:49:07.667Z,9.10
2019-04-06T20:51:50.629Z,9.00
2019-04-06T20:54:28.234Z,9.00
2019-04-06T20:57:05.863Z,8.90
2019-04-06T20:59:43.827Z,8.90
2019-04-06T21:02:43.341Z,8.80
2019-04-06T21:05:27.003Z,8.80
2019-04-06T21:08:07.061Z,8.70
2019-04-06T21:10:53.313Z,8.70
2019-04-06T21:13:39.068Z,8.60
2019-04-06T21:16:24.099Z,8.60
2019-04-06T21:19:04.971Z,8.60
2019-04-06T21:21:48.165Z,8.50
2019-04-06T21:24:28.679Z,8.50
2019-04-06T21:27:12.401Z,8.40
2019-04-06T21:29:50.718Z,8.40
2019-04-06T21:32:31.536Z,8.40
2019-04-06T21:35:18.901Z,8.40
2019-04-06T21:38:03.900Z,8.30
2019-04-06T21:40:45.820Z,8.30
2019-04-06T21:43:27.778Z,8.30
2019-04-06T21:46:08.919Z,8.20
2019-04-06T21:48:54.404Z,8.20
2019-04-06T21:51:43.615Z,8.10
2019-04-06T21:54:27.231Z,8.10
2019-04-06T21:57:11.501Z,8.00
2019-04-06T21:59:50.627Z,8.00
2019-04-06T22:02:35.390Z,7.90
2019-04-06T22:05:17.357Z,7.90
2019-04-06T22:07:58.911Z,7.90
2019-04-06T22:10:38.921Z,7.80
2019-04-06T22:13:25.369Z,7.70
2019-04-06T22:16:11.420Z,7.70
2019-04-06T22:19:05.713Z,7.60
2019-04-06T22:22:02.321Z,7.50
2019-04-06T22:24:43.029Z,7.40
2019-04-06T22:27:29.394Z,7.30
2019-04-06T22:30:12.787Z,7.20
2019-04-06T22:33:06.901Z,7.20
2019-04-06T22:35:47.417Z,7.10
2019-04-06T22:38:29.512Z,7.00
2019-04-06T22:41:06.705Z,6.90
2019-04-06T22:43:49.649Z,6.90
2019-04-06T22:46:30.106Z,6.80
2019-04-06T22:49:18.982Z,6.70
2019-04-06T22:51:58.787Z,6.70
2019-04-06T22:54:43.529Z,6.60
2019-04-06T22:57:29.543Z,6.60
2019-04-06T23:00:13.390Z,6.50
2019-04-06T23:03:09.229Z,6.50
2019-04-06T23:05:52.770Z,6.40
2019-04-06T23:08:30.184Z,6.30
2019-04-06T23:11:12.916Z,6.30
2019-04-06T23:14:02.039Z,6.20
2019-04-06T23:16:42.807Z,6.20
2019-04-06T23:19:25.117Z,6.10
2019-04-06T23:22:08.165Z,6.10
2019-04-06T23:24:48.446Z,6.10
2019-04-06T23:27:27.373Z,6.10
2019-04-06T23:30:12.218Z,6.00
2019-04-06T23:32:53.496Z,6.00
2019-04-06T23:35:31.223Z,6.00
2019-04-06T23:38:17.836Z,6.00
2019-04-06T23:41:00.187Z,5.90
2019-04-06T23:43:43.839Z,5.90
2019-04-06T23:46:35.169Z,5.80
2019-04-06T23:49:27.704Z,5.90
2019-04-06T23:52:08.243Z,5.80
2019-04-06T23:54:53.341Z,5.80
2019-04-06T23:58:01.581Z,5.70
